Time;durP1;ratioP1;P1;durP2;ratioP2;P2;SDS_P1;SDS_P2;PMS_P1;PMS_P2;Temp;Humidity;BMP_temperature;BMP_pressure;BME280_temperature;BME280_humidity;BME280_pressure;Samples;Min_cycle;Max_cycle;Signal;HPM_P1;HPM_P2
2021/05/25 00:00:51;;;;;;;3.13;1.63;;;;;;;;;;5017062;28;20349;-75
2021/05/25 00:03:17;;;;;;;2.55;1.58;;;;;;;;;;5017133;28;20072;-75
2021/05/25 00:05:43;;;;;;;2.65;1.50;;;;;;;;;;5016479;28;20554;-75
2021/05/25 00:08:09;;;;;;;1.90;1.50;;;;;;;;;;5016579;28;20033;-74
2021/05/25 00:10:35;;;;;;;1.85;1.70;;;;;;;;;;5016663;28;20472;-76
2021/05/25 00:13:01;;;;;;;2.70;1.83;;;;;;;;;;5017200;28;20361;-75
2021/05/25 00:15:28;;;;;;;2.30;1.58;;;;;;;;;;5016004;28;20029;-75
2021/05/25 00:17:54;;;;;;;5.55;1.40;;;;;;;;;;5016743;28;20030;-75
2021/05/25 00:20:21;;;;;;;2.17;1.48;;;;;;;;;;5016613;28;20468;-75
2021/05/25 00:22:47;;;;;;;2.50;1.45;;;;;;;;;;5016614;28;20029;-75
2021/05/25 00:25:13;;;;;;;3.88;1.48;;;;;;;;;;5016662;28;20026;-75
2021/05/25 00:27:39;;;;;;;1.98;1.58;;;;;;;;;;5016751;28;20034;-75
2021/05/25 00:30:06;;;;;;;1.67;1.42;;;;;;;;;;5016483;28;20065;-75
2021/05/25 00:32:32;;;;;;;5.50;1.40;;;;;;;;;;5016698;28;20026;-75
2021/05/25 00:34:58;;;;;;;2.22;1.58;;;;;;;;;;5016227;28;20472;-75
2021/05/25 00:37:24;;;;;;;1.52;1.23;;;;;;;;;;5015783;28;20026;-75
2021/05/25 00:39:50;;;;;;;4.93;1.40;;;;;;;;;;5016246;28;20018;-75
2021/05/25 00:42:16;;;;;;;1.80;1.30;;;;;;;;;;5016102;28;20037;-75
2021/05/25 00:44:42;;;;;;;2.53;1.52;;;;;;;;;;5016698;28;20022;-76
2021/05/25 00:47:08;;;;;;;2.60;1.70;;;;;;;;;;5016509;28;20034;-75
2021/05/25 00:49:34;;;;;;;2.53;1.35;;;;;;;;;;5016127;28;20475;-75
2021/05/25 00:52:01;;;;;;;1.30;1.20;;;;;;;;;;5016105;28;20109;-78
2021/05/25 00:54:27;;;;;;;1.75;1.30;;;;;;;;;;5015901;28;20033;-78
2021/05/25 00:56:54;;;;;;;1.90;1.70;;;;;;;;;;5016505;28;20026;-77
2021/05/25 00:59:20;;;;;;;1.85;1.50;;;;;;;;;;5016353;28;20026;-77
2021/05/25 01:01:47;;;;;;;2.00;1.42;;;;;;;;;;5015821;28;20460;-77
2021/05/25 01:04:13;;;;;;;1.60;1.40;;;;;;;;;;5015307;28;20484;-77
2021/05/25 01:06:39;;;;;;;2.03;1.50;;;;;;;;;;5015474;28;20076;-77
2021/05/25 01:09:05;;;;;;;1.55;1.38;;;;;;;;;;5016268;28;20030;-77
2021/05/25 01:11:36;;;;;;;1.30;1.20;;;;;;;;;;5015812;28;20435;-75
2021/05/25 01:14:02;;;;;;;2.55;1.77;;;;;;;;;;5015678;28;20039;-76
2021/05/25 01:16:29;;;;;;;1.90;1.42;;;;;;;;;;5015331;28;20061;-78
2021/05/25 01:18:55;;;;;;;4.22;1.52;;;;;;;;;;5015514;28;20087;-78
2021/05/25 01:21:21;;;;;;;1.90;1.27;;;;;;;;;;5015456;28;20067;-82
2021/05/25 01:23:48;;;;;;;1.50;1.38;;;;;;;;;;5015514;28;20026;-83
2021/05/25 01:26:15;;;;;;;1.35;1.25;;;;;;;;;;5014223;28;20021;-83
2021/05/25 01:28:41;;;;;;;1.40;1.30;;;;;;;;;;5015253;28;20490;-83
2021/05/25 01:31:07;;;;;;;3.22;1.42;;;;;;;;;;5015619;28;20026;-82
2021/05/25 01:33:36;;;;;;;3.30;1.88;;;;;;;;;;5015190;28;20034;-77
2021/05/25 01:36:03;;;;;;;2.33;1.35;;;;;;;;;;5015290;28;20022;-78
2021/05/25 01:38:29;;;;;;;1.50;1.40;;;;;;;;;;5015423;28;20036;-76
2021/05/25 01:40:56;;;;;;;1.27;1.17;;;;;;;;;;5015693;28;20388;-77
2021/05/25 01:43:22;;;;;;;1.90;1.65;;;;;;;;;;5015074;28;20026;-77
2021/05/25 01:45:48;;;;;;;1.45;1.25;;;;;;;;;;5014832;28;20545;-77
2021/05/25 01:48:15;;;;;;;2.00;1.25;;;;;;;;;;5014648;28;20468;-77
2021/05/25 01:50:41;;;;;;;2.03;1.30;;;;;;;;;;5014569;28;20025;-77
2021/05/25 01:53:09;;;;;;;1.67;1.20;;;;;;;;;;5015245;28;20029;-76
2021/05/25 01:55:38;;;;;;;1.95;1.67;;;;;;;;;;5015023;28;20034;-76
2021/05/25 01:58:05;;;;;;;2.42;1.48;;;;;;;;;;5015199;28;20103;-77
2021/05/25 02:00:32;;;;;;;1.58;1.20;;;;;;;;;;5015008;28;20471;-76
2021/05/25 02:02:58;;;;;;;1.95;1.55;;;;;;;;;;5014937;28;20037;-76
2021/05/25 02:05:24;;;;;;;2.13;1.52;;;;;;;;;;5014778;28;20056;-77
2021/05/25 02:07:50;;;;;;;1.40;1.23;;;;;;;;;;5015030;28;20037;-77
2021/05/25 02:10:33;;;;;;;1.10;1.10;;;;;;;;;;5014366;28;20456;-76
2021/05/25 02:13:00;;;;;;;2.08;1.40;;;;;;;;;;5014743;28;20547;-77
2021/05/25 02:15:27;;;;;;;1.67;1.33;;;;;;;;;;5014628;28;20029;-78
2021/05/25 02:17:53;;;;;;;1.98;1.50;;;;;;;;;;5014672;28;20033;-78
2021/05/25 02:20:19;;;;;;;1.63;1.30;;;;;;;;;;5014512;28;20037;-78
2021/05/25 02:22:45;;;;;;;1.65;1.55;;;;;;;;;;5014743;28;20068;-78
2021/05/25 02:25:11;;;;;;;1.98;1.08;;;;;;;;;;5014892;28;20021;-78
2021/05/25 02:27:37;;;;;;;2.25;1.23;;;;;;;;;;5014668;28;20113;-77
2021/05/25 02:30:04;;;;;;;3.05;1.45;;;;;;;;;;5014506;28;20049;-78
2021/05/25 02:32:30;;;;;;;1.33;1.20;;;;;;;;;;5014071;28;20037;-78
2021/05/25 02:34:56;;;;;;;2.45;1.58;;;;;;;;;;5014373;28;20056;-78
2021/05/25 02:37:22;;;;;;;2.10;1.25;;;;;;;;;;5015279;28;20407;-78
2021/05/25 02:39:48;;;;;;;1.40;1.30;;;;;;;;;;5021033;28;20033;-78
2021/05/25 02:42:14;;;;;;;3.70;1.77;;;;;;;;;;5020817;28;20030;-78
2021/05/25 02:44:40;;;;;;;3.80;1.60;;;;;;;;;;5020802;28;20040;-78
2021/05/25 02:47:06;;;;;;;1.55;1.30;;;;;;;;;;5020844;28;20022;-78
2021/05/25 02:49:32;;;;;;;1.75;1.33;;;;;;;;;;5020877;28;20530;-79
2021/05/25 02:51:58;;;;;;;3.67;1.17;;;;;;;;;;5020864;28;20022;-78
2021/05/25 02:54:24;;;;;;;1.60;1.50;;;;;;;;;;5020323;28;20045;-79
2021/05/25 02:56:50;;;;;;;3.17;1.50;;;;;;;;;;5020818;28;20117;-78
2021/05/25 02:59:16;;;;;;;5.30;1.75;;;;;;;;;;5021013;28;20468;-78
2021/05/25 03:01:43;;;;;;;2.95;1.80;;;;;;;;;;5020673;28;20370;-78
2021/05/25 03:04:09;;;;;;;1.48;1.38;;;;;;;;;;5020298;28;20124;-78
2021/05/25 03:06:35;;;;;;;2.88;1.20;;;;;;;;;;5020635;28;20025;-79
2021/05/25 03:09:01;;;;;;;1.63;1.23;;;;;;;;;;5021043;28;20022;-78
2021/05/25 03:11:27;;;;;;;1.85;1.38;;;;;;;;;;5020305;28;20026;-78
2021/05/25 03:13:53;;;;;;;3.75;1.83;;;;;;;;;;5020385;28;20104;-77
2021/05/25 03:16:20;;;;;;;2.88;1.58;;;;;;;;;;5020032;28;20072;-78
2021/05/25 03:18:46;;;;;;;1.80;1.67;;;;;;;;;;5020774;28;20041;-78
2021/05/25 03:21:12;;;;;;;1.50;1.33;;;;;;;;;;5020442;28;20054;-79
2021/05/25 03:23:38;;;;;;;2.45;1.60;;;;;;;;;;5020305;28;20388;-78
2021/05/25 03:26:04;;;;;;;5.53;2.50;;;;;;;;;;5020451;28;20049;-78
2021/05/25 03:28:30;;;;;;;11.23;5.78;;;;;;;;;;5020318;28;20076;-78
2021/05/25 03:30:56;;;;;;;9.05;4.88;;;;;;;;;;5020145;28;20037;-79
2021/05/25 03:33:22;;;;;;;9.05;4.75;;;;;;;;;;5020513;28;20480;-79
2021/05/25 03:35:48;;;;;;;13.27;6.07;;;;;;;;;;5020105;28;20431;-77
2021/05/25 03:38:14;;;;;;;11.75;6.32;;;;;;;;;;5020206;28;20025;-77
2021/05/25 03:40:40;;;;;;;10.18;5.55;;;;;;;;;;5020689;28;20086;-77
2021/05/25 03:43:06;;;;;;;6.72;4.25;;;;;;;;;;5020624;28;20022;-77
2021/05/25 03:45:33;;;;;;;10.48;6.07;;;;;;;;;;5019935;28;20058;-77
2021/05/25 03:47:59;;;;;;;9.07;4.50;;;;;;;;;;5020547;28;20076;-77
2021/05/25 03:50:25;;;;;;;9.38;5.50;;;;;;;;;;5016614;28;20030;-77
2021/05/25 03:52:52;;;;;;;12.30;6.70;;;;;;;;;;5016741;28;20026;-77
2021/05/25 03:55:54;;;;;;;12.90;5.30;;;;;;;;;;5017078;28;20076;-76
2021/05/25 04:00:51;;;;;;;10.32;5.55;;;;;;;;;;5002942;28;20026;-79
2021/05/25 04:03:17;;;;;;;10.70;6.22;;;;;;;;;;5017184;28;20076;-77
2021/05/25 04:05:43;;;;;;;10.30;5.28;;;;;;;;;;5017536;28;20053;-78
2021/05/25 04:08:09;;;;;;;7.55;4.60;;;;;;;;;;5016606;28;20030;-78
2021/05/25 04:10:35;;;;;;;8.40;5.85;;;;;;;;;;5016338;28;20113;-78
2021/05/25 04:13:01;;;;;;;10.02;5.95;;;;;;;;;;5016874;28;20030;-78
2021/05/25 04:15:27;;;;;;;8.05;5.45;;;;;;;;;;5016560;28;20034;-78
2021/05/25 04:17:54;;;;;;;8.50;4.97;;;;;;;;;;5016676;28;20348;-78
2021/05/25 04:20:21;;;;;;;10.73;5.60;;;;;;;;;;5016525;28;20022;-78
2021/05/25 04:22:47;;;;;;;15.40;5.68;;;;;;;;;;5016839;28;20018;-78
2021/05/25 04:25:13;;;;;;;6.05;4.30;;;;;;;;;;5016543;28;20103;-79
2021/05/25 04:27:39;;;;;;;6.93;5.18;;;;;;;;;;5016829;28;20030;-78
2021/05/25 04:30:06;;;;;;;8.85;4.82;;;;;;;;;;5016218;28;20030;-78
2021/05/25 04:32:32;;;;;;;10.43;5.43;;;;;;;;;;5016029;28;20026;-78
2021/05/25 04:34:58;;;;;;;7.07;4.90;;;;;;;;;;5016203;28;20034;-79
2021/05/25 04:37:24;;;;;;;8.52;4.65;;;;;;;;;;5016444;28;20086;-78
2021/05/25 04:39:50;;;;;;;5.30;4.57;;;;;;;;;;5016050;28;20168;-78
2021/05/25 04:42:16;;;;;;;10.10;5.00;;;;;;;;;;5016107;28;20029;-79
2021/05/25 04:44:42;;;;;;;7.65;4.90;;;;;;;;;;5016150;28;20063;-78
2021/05/25 04:47:09;;;;;;;6.38;4.68;;;;;;;;;;5016472;28;20026;-78
2021/05/25 04:49:37;;;;;;;6.97;4.85;;;;;;;;;;5016053;28;20026;-78
2021/05/25 04:52:03;;;;;;;5.30;3.58;;;;;;;;;;5015887;28;20029;-77
2021/05/25 04:54:29;;;;;;;8.20;4.97;;;;;;;;;;5015560;28;20045;-76
2021/05/25 04:56:56;;;;;;;6.30;3.97;;;;;;;;;;5016049;28;20018;-77
2021/05/25 04:59:22;;;;;;;7.57;4.05;;;;;;;;;;5015832;28;20457;-77
2021/05/25 05:01:48;;;;;;;6.25;4.13;;;;;;;;;;5015595;28;20041;-77
2021/05/25 05:04:14;;;;;;;15.13;4.13;;;;;;;;;;5015602;28;20085;-77
2021/05/25 05:06:40;;;;;;;5.85;4.00;;;;;;;;;;5015822;28;20076;-77
2021/05/25 05:09:06;;;;;;;4.85;3.28;;;;;;;;;;5015341;28;20062;-77
2021/05/25 05:11:32;;;;;;;7.35;4.00;;;;;;;;;;5015767;28;20018;-77
2021/05/25 05:13:58;;;;;;;5.65;3.13;;;;;;;;;;5015573;28;20030;-76
2021/05/25 05:16:24;;;;;;;4.80;3.35;;;;;;;;;;5015562;28;20083;-76
2021/05/25 05:18:51;;;;;;;4.55;3.65;;;;;;;;;;5015943;28;20495;-77
2021/05/25 05:21:17;;;;;;;4.95;3.70;;;;;;;;;;5015752;28;20037;-76
2021/05/25 05:23:43;;;;;;;6.13;3.55;;;;;;;;;;5015385;28;20030;-76
2021/05/25 05:26:10;;;;;;;5.75;3.63;;;;;;;;;;5015273;28;20494;-77
2021/05/25 05:28:36;;;;;;;3.90;3.42;;;;;;;;;;5013223;28;20030;-78
2021/05/25 05:31:02;;;;;;;5.22;3.42;;;;;;;;;;5015019;28;20499;-78
2021/05/25 05:33:30;;;;;;;3.70;2.88;;;;;;;;;;5013762;28;20034;-80
2021/05/25 05:35:57;;;;;;;8.20;3.47;;;;;;;;;;5014978;28;20030;-81
2021/05/25 05:38:24;;;;;;;9.13;3.33;;;;;;;;;;5014898;28;20026;-80
2021/05/25 05:40:50;;;;;;;17.50;3.55;;;;;;;;;;5014815;28;20030;-78
2021/05/25 05:43:18;;;;;;;9.32;3.85;;;;;;;;;;5013339;28;20491;-78
2021/05/25 05:45:44;;;;;;;6.50;3.75;;;;;;;;;;5014663;28;20033;-79
2021/05/25 05:48:10;;;;;;;4.72;3.55;;;;;;;;;;5015334;28;20353;-79
2021/05/25 05:50:36;;;;;;;6.38;4.18;;;;;;;;;;5014991;28;20177;-80
2021/05/25 05:53:02;;;;;;;6.30;3.25;;;;;;;;;;5012967;28;20105;-81
2021/05/25 05:55:28;;;;;;;5.25;3.90;;;;;;;;;;5016023;28;20027;-83
2021/05/25 05:57:54;;;;;;;5.18;3.03;;;;;;;;;;5014478;28;20030;-83
2021/05/25 06:00:21;;;;;;;13.32;3.47;;;;;;;;;;5014213;28;20400;-79
2021/05/25 06:02:47;;;;;;;7.22;3.83;;;;;;;;;;5013842;28;20036;-80
2021/05/25 06:05:13;;;;;;;6.30;3.85;;;;;;;;;;5014528;28;20057;-78
2021/05/25 06:07:39;;;;;;;4.45;2.80;;;;;;;;;;5014850;28;20026;-79
2021/05/25 06:10:06;;;;;;;6.22;3.13;;;;;;;;;;5014740;28;20105;-76
2021/05/25 06:12:32;;;;;;;4.63;2.90;;;;;;;;;;5012174;28;20117;-79
2021/05/25 06:14:58;;;;;;;7.45;3.28;;;;;;;;;;5014867;28;20475;-79
2021/05/25 06:17:24;;;;;;;6.18;3.05;;;;;;;;;;5014704;28;20102;-78
2021/05/25 06:19:51;;;;;;;4.43;3.55;;;;;;;;;;5012776;28;20026;-81
2021/05/25 06:22:21;;;;;;;10.43;3.55;;;;;;;;;;5011750;28;20384;-77
2021/05/25 06:24:47;;;;;;;5.22;3.10;;;;;;;;;;5014396;28;20046;-79
2021/05/25 06:27:13;;;;;;;3.10;2.80;;;;;;;;;;5014531;28;20030;-79
2021/05/25 06:29:40;;;;;;;3.55;2.60;;;;;;;;;;5014549;28;20057;-80
2021/05/25 06:32:06;;;;;;;8.38;3.08;;;;;;;;;;5013590;28;20105;-82
2021/05/25 06:34:32;;;;;;;5.30;3.30;;;;;;;;;;5013687;28;20029;-76
2021/05/25 06:36:59;;;;;;;6.53;3.00;;;;;;;;;;5012807;28;20091;-80
2021/05/25 06:39:25;;;;;;;10.82;3.08;;;;;;;;;;5014263;28;20467;-81
2021/05/25 06:41:51;;;;;;;4.78;3.05;;;;;;;;;;5014115;28;20018;-77
2021/05/25 06:44:17;;;;;;;5.60;3.25;;;;;;;;;;5012730;28;20026;-78
2021/05/25 06:46:43;;;;;;;5.22;3.38;;;;;;;;;;5012174;28;20037;-79
2021/05/25 06:49:11;;;;;;;9.27;2.90;;;;;;;;;;5012999;28;20384;-78
2021/05/25 06:51:37;;;;;;;5.07;2.95;;;;;;;;;;5012292;28;20371;-77
2021/05/25 06:54:05;;;;;;;4.05;2.88;;;;;;;;;;5012572;28;20076;-78
2021/05/25 06:56:35;;;;;;;4.75;2.72;;;;;;;;;;5010068;28;20018;-78
2021/05/25 06:59:01;;;;;;;3.60;2.97;;;;;;;;;;5012591;28;20045;-76
2021/05/25 07:01:27;;;;;;;10.48;3.05;;;;;;;;;;5012663;28;20077;-81
2021/05/25 07:03:54;;;;;;;3.25;2.72;;;;;;;;;;5013040;28;20054;-81
2021/05/25 07:06:20;;;;;;;6.43;2.78;;;;;;;;;;5012985;28;20103;-79
2021/05/25 07:08:47;;;;;;;3.72;3.17;;;;;;;;;;5014227;28;20026;-80
2021/05/25 07:11:13;;;;;;;4.28;2.45;;;;;;;;;;5013682;28;20072;-79
2021/05/25 07:13:39;;;;;;;6.22;2.53;;;;;;;;;;5013633;28;20125;-77
2021/05/25 07:16:05;;;;;;;5.07;3.00;;;;;;;;;;5013467;28;20030;-80
2021/05/25 07:18:31;;;;;;;5.75;2.63;;;;;;;;;;5012864;28;20025;-86
2021/05/25 07:20:57;;;;;;;5.20;2.58;;;;;;;;;;5013497;28;20040;-82
2021/05/25 07:23:23;;;;;;;2.67;2.40;;;;;;;;;;5013540;28;20129;-80
2021/05/25 07:25:49;;;;;;;4.10;2.53;;;;;;;;;;5014728;28;20208;-77
2021/05/25 07:28:15;;;;;;;4.45;3.00;;;;;;;;;;5016164;28;20030;-79
2021/05/25 07:30:43;;;;;;;5.47;3.00;;;;;;;;;;5016253;28;20060;-78
2021/05/25 07:33:09;;;;;;;3.53;2.58;;;;;;;;;;5012824;28;20099;-78
2021/05/25 07:35:35;;;;;;;4.65;2.38;;;;;;;;;;5015901;28;20030;-76
2021/05/25 07:38:01;;;;;;;4.97;2.40;;;;;;;;;;5017909;28;20029;-84
2021/05/25 07:40:30;;;;;;;2.78;2.53;;;;;;;;;;5019591;28;20025;-81
2021/05/25 07:42:56;;;;;;;5.07;2.80;;;;;;;;;;5019469;28;20037;-79
2021/05/25 07:45:23;;;;;;;4.13;2.58;;;;;;;;;;5019908;28;20484;-80
2021/05/25 07:47:49;;;;;;;3.45;2.80;;;;;;;;;;5019965;28;20077;-85
2021/05/25 07:50:15;;;;;;;2.95;2.35;;;;;;;;;;5018626;28;20080;-81
2021/05/25 07:52:42;;;;;;;2.70;2.50;;;;;;;;;;5019502;28;20021;-79
2021/05/25 07:55:09;;;;;;;3.10;2.33;;;;;;;;;;5018987;28;20038;-78
2021/05/25 07:57:35;;;;;;;4.07;2.05;;;;;;;;;;5019692;28;20045;-80
2021/05/25 08:00:01;;;;;;;3.33;2.38;;;;;;;;;;5018817;28;20067;-76
2021/05/25 08:02:27;;;;;;;4.03;2.80;;;;;;;;;;5018604;28;20025;-77
2021/05/25 08:04:53;;;;;;;3.90;2.67;;;;;;;;;;5018236;28;20172;-78
2021/05/25 08:07:19;;;;;;;4.18;2.47;;;;;;;;;;5020538;28;20025;-82
2021/05/25 08:09:46;;;;;;;9.15;2.45;;;;;;;;;;5020380;28;20521;-79
2021/05/25 08:12:12;;;;;;;7.72;3.53;;;;;;;;;;5019810;28;20416;-77
2021/05/25 08:14:38;;;;;;;2.83;2.50;;;;;;;;;;5019602;28;20096;-74
2021/05/25 08:17:15;;;;;;;3.35;2.55;;;;;;;;;;5020119;28;20026;-76
2021/05/25 08:19:43;;;;;;;2.70;2.50;;;;;;;;;;5019551;28;20113;-74
2021/05/25 08:22:09;;;;;;;3.95;2.53;;;;;;;;;;5018732;28;20114;-75
2021/05/25 08:24:35;;;;;;;3.22;2.50;;;;;;;;;;5019640;28;20025;-75
2021/05/25 08:27:01;;;;;;;3.30;2.25;;;;;;;;;;5016278;28;20025;-77
2021/05/25 08:29:27;;;;;;;4.18;3.20;;;;;;;;;;5019215;28;20026;-77
2021/05/25 08:31:53;;;;;;;4.32;2.90;;;;;;;;;;5018080;28;20022;-79
2021/05/25 08:34:20;;;;;;;4.47;2.10;;;;;;;;;;5018826;28;20045;-75
2021/05/25 08:36:46;;;;;;;5.55;3.17;;;;;;;;;;5017926;28;20060;-79
2021/05/25 08:39:12;;;;;;;6.18;3.33;;;;;;;;;;5017389;28;20025;-76
2021/05/25 08:41:38;;;;;;;7.45;3.38;;;;;;;;;;5017258;28;20021;-76
2021/05/25 08:44:05;;;;;;;9.05;2.83;;;;;;;;;;5016672;28;20081;-75
2021/05/25 08:46:32;;;;;;;3.53;3.15;;;;;;;;;;5016285;28;20104;-77
2021/05/25 08:48:59;;;;;;;4.40;3.47;;;;;;;;;;5017254;28;20084;-74
2021/05/25 08:51:25;;;;;;;4.05;3.20;;;;;;;;;;5015492;28;20025;-74
2021/05/25 08:53:51;;;;;;;4.72;3.20;;;;;;;;;;5017393;28;20048;-75
2021/05/25 08:56:17;;;;;;;7.72;3.67;;;;;;;;;;5017705;28;20087;-77
2021/05/25 08:58:43;;;;;;;4.70;3.78;;;;;;;;;;5018295;28;20029;-77
2021/05/25 09:01:10;;;;;;;12.45;5.47;;;;;;;;;;5018529;28;20503;-78
2021/05/25 09:03:55;;;;;;;7.38;4.13;;;;;;;;;;5018399;28;20080;-76
2021/05/25 09:06:35;;;;;;;11.07;4.63;;;;;;;;;;5018917;28;20040;-77
2021/05/25 09:09:05;;;;;;;4.10;3.63;;;;;;;;;;5015325;28;20033;-77
2021/05/25 09:11:31;;;;;;;5.78;3.58;;;;;;;;;;5015590;28;20026;-75
2021/05/25 09:14:12;;;;;;;9.15;4.72;;;;;;;;;;5015178;28;20045;-77
2021/05/25 09:16:38;;;;;;;7.95;4.63;;;;;;;;;;5016020;28;20060;-78
2021/05/25 09:19:04;;;;;;;6.05;4.30;;;;;;;;;;5015692;28;20033;-78
2021/05/25 09:21:31;;;;;;;4.55;3.90;;;;;;;;;;5014991;28;20395;-78
2021/05/25 09:23:57;;;;;;;7.93;4.18;;;;;;;;;;5015116;28;20040;-78
2021/05/25 09:26:27;;;;;;;9.10;4.75;;;;;;;;;;5014915;28;20058;-78
2021/05/25 09:28:57;;;;;;;5.80;3.85;;;;;;;;;;5015256;28;20030;-78
2021/05/25 09:31:27;;;;;;;9.88;3.95;;;;;;;;;;5015522;28;20030;-76
2021/05/25 09:34:13;;;;;;;7.50;4.70;;;;;;;;;;5014990;28;20038;-76
2021/05/25 09:36:59;;;;;;;5.85;4.85;;;;;;;;;;5000530;28;20021;-77
2021/05/25 09:39:26;;;;;;;5.57;4.82;;;;;;;;;;5000586;28;20048;-76
2021/05/25 09:42:00;;;;;;;8.18;5.25;;;;;;;;;;5014915;28;20025;-79
2021/05/25 09:44:26;;;;;;;9.48;4.70;;;;;;;;;;5014740;28;20472;-79
2021/05/25 09:46:52;;;;;;;6.50;4.97;;;;;;;;;;5014147;28;20037;-78
2021/05/25 09:49:20;;;;;;;9.48;5.38;;;;;;;;;;5013923;28;20033;-78
2021/05/25 09:51:46;;;;;;;5.47;4.85;;;;;;;;;;5014680;28;20033;-79
2021/05/25 09:54:20;;;;;;;12.23;5.63;;;;;;;;;;5014630;28;20193;-78
2021/05/25 09:57:02;;;;;;;5.03;4.53;;;;;;;;;;5015318;28;20070;-79
2021/05/25 09:59:28;;;;;;;;;;;;;;;;;;5018390;28;20108;-78
2021/05/25 10:01:54;;;;;;;5.72;5.10;;;;;;;;;;5017687;28;19906;-77
2021/05/25 10:04:22;;;;;;;5.38;4.60;;;;;;;;;;5016992;28;20061;-77
2021/05/25 10:06:48;;;;;;;5.80;5.25;;;;;;;;;;5017527;28;20495;-76
2021/05/25 10:09:15;;;;;;;5.40;4.32;;;;;;;;;;5017606;28;20028;-76
2021/05/25 10:11:42;;;;;;;7.38;5.45;;;;;;;;;;5017042;28;20029;-76
2021/05/25 10:14:09;;;;;;;8.88;5.03;;;;;;;;;;5016122;28;20057;-76
2021/05/25 10:16:38;;;;;;;13.18;5.60;;;;;;;;;;5014767;28;20034;-76
2021/05/25 10:21:50;;;;;;;5.13;4.32;;;;;;;;;;4999806;28;20470;-78
2021/05/25 10:24:17;;;;;;;6.72;4.68;;;;;;;;;;5014434;28;20038;-77
2021/05/25 10:26:44;;;;;;;15.85;4.82;;;;;;;;;;5014295;28;20029;-77
2021/05/25 10:29:10;;;;;;;4.63;3.72;;;;;;;;;;5014124;28;20491;-77
2021/05/25 10:31:36;;;;;;;6.80;5.03;;;;;;;;;;5014049;28;20024;-78
2021/05/25 10:34:19;;;;;;;4.20;3.80;;;;;;;;;;5014266;28;20026;-76
2021/05/25 10:36:53;;;;;;;4.38;3.42;;;;;;;;;;5014046;28;20361;-79
2021/05/25 10:39:33;;;;;;;8.95;4.28;;;;;;;;;;5014474;28;20030;-80
2021/05/25 10:42:20;;;;;;;6.75;4.03;;;;;;;;;;5014252;28;20022;-80
2021/05/25 10:44:46;;;;;;;5.63;3.53;;;;;;;;;;4999509;28;20013;-77
2021/05/25 10:47:24;;;;;;;6.20;3.70;;;;;;;;;;5013843;28;20040;-77
2021/05/25 10:49:54;;;;;;;7.75;4.53;;;;;;;;;;5013717;28;20117;-77
2021/05/25 10:52:21;;;;;;;6.45;4.03;;;;;;;;;;5014458;28;20372;-76
2021/05/25 10:54:48;;;;;;;3.72;3.28;;;;;;;;;;5013827;28;20040;-76
2021/05/25 10:57:30;;;;;;;5.40;3.55;;;;;;;;;;5014448;28;20432;-77
2021/05/25 11:00:01;;;;;;;8.48;3.63;;;;;;;;;;5016641;28;20074;-75
2021/05/25 11:02:47;;;;;;;4.63;3.30;;;;;;;;;;5017914;28;20026;-77
2021/05/25 11:05:35;;;;;;;3.17;2.67;;;;;;;;;;5003231;28;20050;-78
2021/05/25 11:08:23;;;;;;;3.67;3.35;;;;;;;;;;5004122;28;20026;-76
2021/05/25 11:10:52;;;;;;;5.95;2.50;;;;;;;;;;5002612;28;20065;-74
2021/05/25 11:13:21;;;;;;;3.67;3.38;;;;;;;;;;5014469;28;20083;-74
2021/05/25 11:16:09;;;;;;;8.48;3.25;;;;;;;;;;5013636;28;20108;-74
2021/05/25 11:18:53;;;;;;;4.45;3.20;;;;;;;;;;5002223;28;20045;-73
2021/05/25 11:24:31;;;;;;;4.30;3.00;;;;;;;;;;4990169;28;20095;-75
2021/05/25 11:26:59;;;;;;;3.25;2.95;;;;;;;;;;5016348;28;20018;-74
2021/05/25 11:29:27;;;;;;;4.25;3.85;;;;;;;;;;5016024;28;20029;-74
2021/05/25 11:31:53;;;;;;;5.07;3.42;;;;;;;;;;5015695;28;20030;-75
2021/05/25 11:34:21;;;;;;;6.13;2.80;;;;;;;;;;5015664;28;20061;-74
2021/05/25 11:36:52;;;;;;;7.97;3.40;;;;;;;;;;5015797;28;20046;-76
2021/05/25 11:39:18;;;;;;;9.93;3.15;;;;;;;;;;5015622;28;20092;-74
2021/05/25 11:41:44;;;;;;;5.70;3.28;;;;;;;;;;5015501;28;20379;-79
2021/05/25 11:44:11;;;;;;;9.15;3.38;;;;;;;;;;5015094;28;20041;-78
2021/05/25 11:46:39;;;;;;;3.17;2.88;;;;;;;;;;5015279;28;20486;-74
2021/05/25 11:49:05;;;;;;;7.75;3.85;;;;;;;;;;5015205;28;20030;-75
2021/05/25 11:51:34;;;;;;;3.25;2.95;;;;;;;;;;5015313;28;20025;-80
2021/05/25 11:54:08;;;;;;;13.52;3.92;;;;;;;;;;5015330;28;20068;-76
2021/05/25 11:56:34;;;;;;;4.47;3.53;;;;;;;;;;5013803;28;20476;-76
2021/05/25 11:59:00;;;;;;;4.35;3.95;;;;;;;;;;5016191;28;20045;-75
2021/05/25 12:01:46;;;;;;;6.05;3.63;;;;;;;;;;5017354;28;20080;-73
2021/05/25 12:04:13;;;;;;;6.35;4.57;;;;;;;;;;5001707;28;20129;-74
2021/05/25 12:06:47;;;;;;;4.15;3.47;;;;;;;;;;5016593;28;20955;-73
2021/05/25 12:09:13;;;;;;;10.52;4.50;;;;;;;;;;5014030;28;20026;-75
2021/05/25 12:11:40;;;;;;;4.65;3.65;;;;;;;;;;5014932;28;20033;-76
2021/05/25 12:14:07;;;;;;;5.50;3.42;;;;;;;;;;5015515;28;20034;-75
2021/05/25 12:16:34;;;;;;;5.30;3.60;;;;;;;;;;5015289;28;20022;-73
2021/05/25 12:19:00;;;;;;;4.65;4.07;;;;;;;;;;5016496;28;20030;-75
2021/05/25 12:21:27;;;;;;;6.53;4.30;;;;;;;;;;5016782;28;20488;-75
2021/05/25 12:23:53;;;;;;;9.75;3.88;;;;;;;;;;5016347;28;20034;-75
2021/05/25 12:26:19;;;;;;;4.60;3.78;;;;;;;;;;5015220;28;20056;-75
2021/05/25 12:28:47;;;;;;;4.47;4.05;;;;;;;;;;5016904;28;20030;-75
2021/05/25 12:31:13;;;;;;;5.47;4.20;;;;;;;;;;5016002;28;20502;-75
2021/05/25 12:33:44;;;;;;;9.98;4.60;;;;;;;;;;5015874;28;20034;-74
2021/05/25 12:36:43;;;;;;;8.30;4.75;;;;;;;;;;5016381;28;20044;-75
2021/05/25 12:39:13;;;;;;;5.38;4.22;;;;;;;;;;5015985;28;20088;-75
2021/05/25 12:41:39;;;;;;;7.63;4.28;;;;;;;;;;5015819;28;20030;-74
2021/05/25 12:44:09;;;;;;;7.82;4.53;;;;;;;;;;5015476;28;20057;-75
2021/05/25 12:46:48;;;;;;;6.22;4.50;;;;;;;;;;5016686;28;20341;-75
2021/05/25 12:49:31;;;;;;;6.13;4.50;;;;;;;;;;5015661;28;20034;-74
2021/05/25 12:52:17;;;;;;;5.82;4.43;;;;;;;;;;5014861;28;20109;-73
2021/05/25 12:55:04;;;;;;;5.72;4.43;;;;;;;;;;4999125;28;20053;-73
2021/05/25 12:57:46;;;;;;;5.43;4.45;;;;;;;;;;4999575;28;20116;-73
2021/05/25 13:00:12;;;;;;;6.07;4.18;;;;;;;;;;4995329;28;20496;-74
2021/05/25 13:02:39;;;;;;;8.90;4.78;;;;;;;;;;4996178;28;20134;-74
2021/05/25 13:05:06;;;;;;;5.45;4.50;;;;;;;;;;5013736;28;20050;-74
2021/05/25 13:07:56;;;;;;;4.60;4.03;;;;;;;;;;5014324;28;20026;-75
2021/05/25 13:10:25;;;;;;;6.07;4.25;;;;;;;;;;4999290;28;20439;-75
2021/05/25 13:12:52;;;;;;;6.30;4.30;;;;;;;;;;5014341;28;20539;-75
2021/05/25 13:15:19;;;;;;;5.22;4.55;;;;;;;;;;5014290;28;20480;-75
2021/05/25 13:17:57;;;;;;;5.75;4.38;;;;;;;;;;5014192;28;20049;-75
2021/05/25 13:20:25;;;;;;;5.55;4.25;;;;;;;;;;5014549;28;20026;-74
2021/05/25 13:22:51;;;;;;;5.88;4.85;;;;;;;;;;5013987;28;20388;-74
2021/05/25 13:25:17;;;;;;;9.30;4.22;;;;;;;;;;5013253;28;20018;-76
2021/05/25 13:27:51;;;;;;;4.72;4.20;;;;;;;;;;5014679;28;20079;-76
2021/05/25 13:30:18;;;;;;;5.78;4.50;;;;;;;;;;5017430;28;20022;-78
2021/05/25 13:32:44;;;;;;;7.93;4.63;;;;;;;;;;5017218;28;20026;-75
2021/05/25 13:35:10;;;;;;;14.90;4.68;;;;;;;;;;5016696;28;20090;-76
2021/05/25 13:37:38;;;;;;;8.25;4.78;;;;;;;;;;5016231;28;20061;-78
2021/05/25 13:40:05;;;;;;;7.35;4.90;;;;;;;;;;5015793;28;20414;-76
2021/05/25 13:42:31;;;;;;;4.40;4.00;;;;;;;;;;5015334;28;20551;-74
2021/05/25 13:44:57;;;;;;;5.10;4.60;;;;;;;;;;5015747;28;20060;-74
2021/05/25 13:47:23;;;;;;;13.20;5.00;;;;;;;;;;5015935;28;20109;-74
2021/05/25 13:49:51;;;;;;;12.77;3.92;;;;;;;;;;5016421;28;20022;-74
2021/05/25 13:52:17;;;;;;;6.90;4.95;;;;;;;;;;5016127;28;20022;-74
2021/05/25 13:54:43;;;;;;;20.23;4.78;;;;;;;;;;5016744;28;20037;-76
2021/05/25 13:57:16;;;;;;;8.07;4.65;;;;;;;;;;5017101;28;20030;-75
2021/05/25 14:02:28;;;;;;;5.88;5.13;;;;;;;;;;5002710;28;20128;-76
2021/05/25 14:04:54;;;;;;;4.05;3.65;;;;;;;;;;5015905;28;20054;-74
2021/05/25 14:07:24;;;;;;;6.15;4.03;;;;;;;;;;5014800;28;20042;-76
2021/05/25 14:09:50;;;;;;;6.10;4.78;;;;;;;;;;5015570;28;20100;-76
2021/05/25 14:12:16;;;;;;;4.10;3.60;;;;;;;;;;5015927;28;20448;-75
2021/05/25 14:14:43;;;;;;;6.65;4.75;;;;;;;;;;5015764;28;20033;-75
2021/05/25 14:17:09;;;;;;;5.40;4.22;;;;;;;;;;5016083;28;20104;-79
2021/05/25 14:19:35;;;;;;;6.28;3.70;;;;;;;;;;5016880;28;20030;-74
2021/05/25 14:22:01;;;;;;;4.35;3.80;;;;;;;;;;5016302;28;20121;-79
2021/05/25 14:24:27;;;;;;;16.23;4.40;;;;;;;;;;5017136;28;20054;-76
2021/05/25 14:26:53;;;;;;;6.63;4.32;;;;;;;;;;5015527;28;20053;-74
2021/05/25 14:29:19;;;;;;;5.07;4.47;;;;;;;;;;5015698;28;20041;-75
2021/05/25 14:31:45;;;;;;;8.68;4.32;;;;;;;;;;5016110;28;20035;-76
2021/05/25 14:34:11;;;;;;;6.55;4.00;;;;;;;;;;5015043;28;20049;-74
2021/05/25 14:36:38;;;;;;;4.82;4.22;;;;;;;;;;5015262;28;20542;-73
2021/05/25 14:39:04;;;;;;;5.15;4.20;;;;;;;;;;5014287;28;20034;-73
2021/05/25 14:41:30;;;;;;;12.48;4.65;;;;;;;;;;5013351;28;20033;-73
2021/05/25 14:43:56;;;;;;;7.20;4.10;;;;;;;;;;5013713;28;20030;-73
2021/05/25 14:46:24;;;;;;;9.75;3.60;;;;;;;;;;5013287;28;20026;-74
2021/05/25 14:48:50;;;;;;;4.43;4.03;;;;;;;;;;5013206;28;20034;-72
2021/05/25 14:51:16;;;;;;;6.15;3.85;;;;;;;;;;5014181;28;20030;-73
2021/05/25 14:53:46;;;;;;;4.10;3.63;;;;;;;;;;5014251;28;20061;-73
2021/05/25 14:56:31;;;;;;;4.13;3.58;;;;;;;;;;5013803;28;20029;-74
2021/05/25 14:58:58;;;;;;;3.20;2.90;;;;;;;;;;5013501;28;20387;-73